createdAt,value
2022-12-27T00:00:06.721Z,79.41
2022-12-27T00:01:05.887Z,79.50
2022-12-27T00:02:06.039Z,78.79
2022-12-27T00:03:06.080Z,79.30
2022-12-27T00:04:06.744Z,78.59
2022-12-27T00:05:05.851Z,78.34
2022-12-27T00:06:06.150Z,78.34
2022-12-27T00:07:06.498Z,78.34
2022-12-27T00:08:05.700Z,78.45
2022-12-27T00:09:06.020Z,79.10
2022-12-27T00:10:05.813Z,79.10
2022-12-27T00:11:05.842Z,79.41
2022-12-27T00:12:05.669Z,79.20
2022-12-27T00:13:05.011Z,79.71
2022-12-27T00:14:05.786Z,79.61
2022-12-27T00:15:06.395Z,80.05
2022-12-27T00:16:06.535Z,80.16
2022-12-27T00:17:05.763Z,80.16
2022-12-27T00:18:05.653Z,80.46
2022-12-27T00:19:06.666Z,80.26
2022-12-27T00:20:11.478Z,80.02
2022-12-27T00:21:05.586Z,80.02
2022-12-27T00:22:05.821Z,80.16
2022-12-27T00:23:05.632Z,80.36
2022-12-27T00:24:06.700Z,80.46
2022-12-27T00:25:06.428Z,80.16
2022-12-27T00:26:05.644Z,80.67
2022-12-27T00:27:05.583Z,80.05
2022-12-27T00:28:05.642Z,80.36
2022-12-27T00:29:05.563Z,80.16
2022-12-27T00:30:05.628Z,80.36
2022-12-27T00:31:05.546Z,80.16
2022-12-27T00:32:05.684Z,80.67
2022-12-27T00:33:06.258Z,80.77
2022-12-27T00:34:05.442Z,80.77
2022-12-27T00:35:05.591Z,80.46
2022-12-27T00:36:05.333Z,80.98
2022-12-27T00:37:05.533Z,81.08
2022-12-27T00:38:05.341Z,81.38
2022-12-27T00:39:05.593Z,81.49
2022-12-27T00:40:05.442Z,81.79
2022-12-27T00:41:05.563Z,81.79
2022-12-27T00:42:05.395Z,81.94
2022-12-27T00:43:05.482Z,82.14
2022-12-27T00:44:05.453Z,82.24
2022-12-27T00:45:05.492Z,82.04
2022-12-27T00:46:05.539Z,82.35
2022-12-27T00:47:05.542Z,82.24
2022-12-27T00:48:05.515Z,82.24
2022-12-27T00:49:05.217Z,82.24
2022-12-27T00:50:05.320Z,82.76
2022-12-27T00:51:05.458Z,82.55
2022-12-27T00:52:05.429Z,82.96
2022-12-27T00:53:05.233Z,82.24
2022-12-27T00:54:05.403Z,82.55
2022-12-27T00:55:05.225Z,82.45
2022-12-27T00:56:05.370Z,82.65
2022-12-27T00:57:05.234Z,82.35
2022-12-27T00:58:05.403Z,82.55
2022-12-27T00:59:05.843Z,82.65
2022-12-27T01:00:10.128Z,82.14
2022-12-27T01:01:05.268Z,82.55
2022-12-27T01:02:05.327Z,82.35
2022-12-27T01:03:05.783Z,82.55
2022-12-27T01:04:05.337Z,81.94
2022-12-27T01:05:05.173Z,81.52
2022-12-27T01:06:05.085Z,81.73
2022-12-27T01:07:05.185Z,82.04
2022-12-27T01:08:05.883Z,81.63
2022-12-27T01:09:05.276Z,81.63
2022-12-27T01:10:06.124Z,82.04
2022-12-27T01:11:05.205Z,81.73
2022-12-27T01:12:05.100Z,81.94
2022-12-27T01:13:04.370Z,82.04
2022-12-27T01:14:05.272Z,81.52
2022-12-27T01:15:05.223Z,81.73
2022-12-27T01:16:05.220Z,82.24
2022-12-27T01:17:05.103Z,81.94
2022-12-27T01:18:04.313Z,82.24
2022-12-27T01:19:05.147Z,82.24
2022-12-27T01:20:05.142Z,82.04
2022-12-27T01:21:04.876Z,82.14
2022-12-27T01:22:05.413Z,82.55
2022-12-27T01:23:04.933Z,82.04
2022-12-27T01:24:05.144Z,82.14
2022-12-27T01:25:04.943Z,82.14
2022-12-27T01:26:05.119Z,82.35
2022-12-27T01:27:05.143Z,82.24
2022-12-27T01:28:05.078Z,82.76
2022-12-27T01:29:04.955Z,82.55
2022-12-27T01:30:05.066Z,82.69
2022-12-27T01:31:04.990Z,83.00
2022-12-27T01:32:05.026Z,83.20
2022-12-27T01:33:04.823Z,83.41
2022-12-27T01:34:04.964Z,83.92
2022-12-27T01:35:04.982Z,83.82
2022-12-27T01:36:04.704Z,84.23
2022-12-27T01:37:04.962Z,84.44
2022-12-27T01:38:04.785Z,84.12
2022-12-27T01:39:05.024Z,84.03
2022-12-27T01:40:04.783Z,84.12
2022-12-27T01:41:04.963Z,84.64
2022-12-27T01:42:04.735Z,84.74
2022-12-27T01:43:05.464Z,84.95
2022-12-27T01:44:04.794Z,84.95
2022-12-27T01:45:04.852Z,85.15
2022-12-27T01:46:04.839Z,84.84
2022-12-27T01:47:04.863Z,85.05
2022-12-27T01:48:04.719Z,84.84
2022-12-27T01:49:05.387Z,85.05
2022-12-27T01:50:04.861Z,85.36
2022-12-27T01:51:04.685Z,85.46
2022-12-27T01:52:04.775Z,85.36
2022-12-27T01:53:04.584Z,85.50
2022-12-27T01:54:04.864Z,85.60
2022-12-27T01:55:04.609Z,85.60
2022-12-27T01:56:04.776Z,85.56
2022-12-27T01:57:04.604Z,85.56
2022-12-27T01:58:04.948Z,85.46
2022-12-27T01:59:04.545Z,85.56
2022-12-27T02:00:04.799Z,85.56
2022-12-27T02:01:04.596Z,85.25
2022-12-27T02:02:05.054Z,85.50
2022-12-27T02:03:04.615Z,85.50
2022-12-27T02:04:04.636Z,85.50
2022-12-27T02:05:04.542Z,85.71
2022-12-27T02:06:04.639Z,86.11
2022-12-27T02:07:04.618Z,85.91
2022-12-27T02:08:04.465Z,86.01
2022-12-27T02:09:04.597Z,85.66
2022-12-27T02:10:04.423Z,85.15
2022-12-27T02:11:04.546Z,85.60
2022-12-27T02:12:04.383Z,85.60
2022-12-27T02:13:04.632Z,85.91
2022-12-27T02:14:04.446Z,86.11
2022-12-27T02:15:04.581Z,86.22
2022-12-27T02:16:04.483Z,86.42
2022-12-27T02:17:04.547Z,86.22
2022-12-27T02:18:04.553Z,86.57
2022-12-27T02:19:04.544Z,86.87
2022-12-27T02:20:04.415Z,87.08
2022-12-27T02:21:04.263Z,87.08
2022-12-27T02:22:04.364Z,87.08
2022-12-27T02:23:04.247Z,87.18
2022-12-27T02:24:04.474Z,87.28
2022-12-27T02:25:04.243Z,87.28
2022-12-27T02:26:04.424Z,87.28
2022-12-27T02:27:04.280Z,87.49
2022-12-27T02:28:04.383Z,87.38
2022-12-27T02:29:04.373Z,87.59
2022-12-27T02:30:04.415Z,87.59
2022-12-27T02:31:04.428Z,87.79
2022-12-27T02:32:04.414Z,87.59
2022-12-27T02:33:04.250Z,87.38
2022-12-27T02:34:04.316Z,87.49
2022-12-27T02:35:04.231Z,87.28
2022-12-27T02:36:04.301Z,87.49
2022-12-27T02:37:04.312Z,87.49
2022-12-27T02:38:04.140Z,87.59
2022-12-27T02:39:04.278Z,87.59
2022-12-27T02:40:04.754Z,87.59
2022-12-27T02:41:04.224Z,87.28
2022-12-27T02:42:04.122Z,87.08
2022-12-27T02:43:04.315Z,87.08
2022-12-27T02:44:04.134Z,87.38
2022-12-27T02:45:04.251Z,87.38
2022-12-27T02:46:04.189Z,87.22
2022-12-27T02:47:04.217Z,87.43
2022-12-27T02:48:04.053Z,87.73
2022-12-27T02:49:04.286Z,87.73
2022-12-27T02:50:04.188Z,87.53
2022-12-27T02:51:04.275Z,87.63
2022-12-27T02:52:04.197Z,87.57
2022-12-27T02:53:04.054Z,87.63
2022-12-27T02:54:04.253Z,87.63
2022-12-27T02:55:04.113Z,87.32
2022-12-27T02:56:04.109Z,87.57
2022-12-27T02:57:04.607Z,88.08
2022-12-27T02:58:04.078Z,87.57
2022-12-27T02:59:03.958Z,87.98
2022-12-27T03:00:04.254Z,87.88
2022-12-27T03:01:04.044Z,87.77
2022-12-27T03:02:04.298Z,87.67
2022-12-27T03:03:03.996Z,87.67
2022-12-27T03:04:04.026Z,87.57
2022-12-27T03:05:03.917Z,87.05
2022-12-27T03:06:03.250Z,87.37
2022-12-27T03:07:03.929Z,87.57
2022-12-27T03:08:03.864Z,88.12
2022-12-27T03:09:04.023Z,88.33
2022-12-27T03:10:03.814Z,88.43
2022-12-27T03:11:04.020Z,87.71
2022-12-27T03:12:03.763Z,87.82
2022-12-27T03:13:03.903Z,88.02
2022-12-27T03:14:03.793Z,87.71
2022-12-27T03:15:03.894Z,88.02
2022-12-27T03:16:03.943Z,88.23
2022-12-27T03:17:04.023Z,88.12
2022-12-27T03:18:03.784Z,87.92
2022-12-27T03:19:03.841Z,88.02
2022-12-27T03:20:03.777Z,88.37
2022-12-27T03:21:03.863Z,88.23
2022-12-27T03:22:03.983Z,88.33
2022-12-27T03:23:03.595Z,88.02
2022-12-27T03:24:03.745Z,87.82
2022-12-27T03:25:03.663Z,88.17
2022-12-27T03:26:03.748Z,88.37
2022-12-27T03:27:03.643Z,88.17
2022-12-27T03:28:03.855Z,88.27
2022-12-27T03:29:03.750Z,88.27
2022-12-27T03:30:03.793Z,88.57
2022-12-27T03:31:03.744Z,88.53
2022-12-27T03:32:03.710Z,88.33
2022-12-27T03:33:03.600Z,88.23
2022-12-27T03:34:03.796Z,88.33
2022-12-27T03:35:03.618Z,88.33
2022-12-27T03:36:03.702Z,88.02
2022-12-27T03:37:03.824Z,87.92
2022-12-27T03:38:03.482Z,87.61
2022-12-27T03:39:03.692Z,87.92
2022-12-27T03:40:03.555Z,87.61
2022-12-27T03:41:03.576Z,87.20
2022-12-27T03:42:03.455Z,87.20
2022-12-27T03:43:04.102Z,86.68
2022-12-27T03:44:03.523Z,86.68
2022-12-27T03:45:03.675Z,86.58
2022-12-27T03:46:03.612Z,86.38
2022-12-27T03:47:03.735Z,85.66
2022-12-27T03:48:03.444Z,84.42
2022-12-27T03:49:03.497Z,83.61
2022-12-27T03:50:03.541Z,83.09
2022-12-27T03:51:03.593Z,82.27
2022-12-27T03:52:03.124Z,82.27
2022-12-27T03:53:03.293Z,81.18
2022-12-27T03:54:03.485Z,79.94
2022-12-27T03:55:03.273Z,78.09
2022-12-27T03:56:03.644Z,78.27
2022-12-27T03:57:03.332Z,76.00
2022-12-27T03:58:03.514Z,75.08
2022-12-27T03:59:03.268Z,74.26
2022-12-27T04:00:03.410Z,74.46
2022-12-27T04:01:03.305Z,74.05
2022-12-27T04:02:03.547Z,73.54
2022-12-27T04:03:03.346Z,74.05
2022-12-27T04:04:03.564Z,73.85
2022-12-27T04:05:03.362Z,73.74
2022-12-27T04:06:03.342Z,73.54
2022-12-27T04:07:03.305Z,73.33
2022-12-27T04:08:03.814Z,73.33
2022-12-27T04:09:03.346Z,73.23
2022-12-27T04:10:03.211Z,73.44
2022-12-27T04:11:03.262Z,74.15
2022-12-27T04:12:03.202Z,74.19
2022-12-27T04:13:03.265Z,74.60
2022-12-27T04:14:03.127Z,75.15
2022-12-27T04:15:03.317Z,75.87
2022-12-27T04:16:03.185Z,76.38
2022-12-27T04:17:03.253Z,76.93
2022-12-27T04:18:03.155Z,77.65
2022-12-27T04:19:03.221Z,77.55
2022-12-27T04:20:03.266Z,77.34
2022-12-27T04:21:03.735Z,77.75
2022-12-27T04:22:03.108Z,77.17
2022-12-27T04:23:03.175Z,76.56
2022-12-27T04:24:03.185Z,76.73
2022-12-27T04:25:02.950Z,76.52
2022-12-27T04:26:03.116Z,76.42
2022-12-27T04:27:02.975Z,76.73
2022-12-27T04:28:03.084Z,76.52
2022-12-27T04:29:03.057Z,76.83
2022-12-27T04:30:03.176Z,77.65
2022-12-27T04:31:03.041Z,76.45
2022-12-27T04:32:03.067Z,77.28
2022-12-27T04:33:03.239Z,77.14
2022-12-27T04:34:03.284Z,76.35
2022-12-27T04:35:03.043Z,77.07
2022-12-27T04:36:06.424Z,77.07
2022-12-27T04:37:02.962Z,76.97
2022-12-27T04:38:02.992Z,77.17
2022-12-27T04:39:02.943Z,77.83
2022-12-27T04:40:03.167Z,77.83
2022-12-27T04:41:03.070Z,78.14
2022-12-27T04:42:02.863Z,78.44
2022-12-27T04:43:02.973Z,78.44
2022-12-27T04:44:02.988Z,78.44
2022-12-27T04:45:02.924Z,78.34
2022-12-27T04:46:02.901Z,78.28
2022-12-27T04:47:03.025Z,78.55
2022-12-27T04:48:02.827Z,78.48
2022-12-27T04:49:02.908Z,78.96
2022-12-27T04:50:02.832Z,78.34
2022-12-27T04:51:02.879Z,80.33
2022-12-27T04:52:02.807Z,80.51
2022-12-27T04:53:02.950Z,79.06
2022-12-27T04:54:02.850Z,79.16
2022-12-27T04:55:02.612Z,79.99
2022-12-27T04:56:02.817Z,78.55
2022-12-27T04:57:02.662Z,78.86
2022-12-27T04:58:02.802Z,78.48
2022-12-27T04:59:02.744Z,78.79
2022-12-27T05:00:02.000Z,78.38
2022-12-27T05:01:02.695Z,78.17
2022-12-27T05:02:03.020Z,78.07
2022-12-27T05:03:02.932Z,78.07
2022-12-27T05:04:02.751Z,78.69
2022-12-27T05:05:02.683Z,78.28
2022-12-27T05:06:02.814Z,78.62
2022-12-27T05:07:02.672Z,78.62
2022-12-27T05:08:02.741Z,78.52
2022-12-27T05:09:02.792Z,78.28
2022-12-27T05:10:02.515Z,77.97
2022-12-27T05:11:02.923Z,77.76
2022-12-27T05:12:02.511Z,77.45
2022-12-27T05:13:02.631Z,77.97
2022-12-27T05:14:02.537Z,78.31
2022-12-27T05:15:02.781Z,77.69
2022-12-27T05:16:02.571Z,77.69
2022-12-27T05:17:02.741Z,77.59
2022-12-27T05:18:02.523Z,77.55
2022-12-27T05:19:02.667Z,76.73
2022-12-27T05:20:02.461Z,76.32
2022-12-27T05:21:02.771Z,75.49
2022-12-27T05:22:03.028Z,75.60
2022-12-27T05:23:02.583Z,75.08
2022-12-27T05:24:05.691Z,74.88
2022-12-27T05:25:02.334Z,75.29
2022-12-27T05:26:02.532Z,75.90
2022-12-27T05:27:02.331Z,74.77
2022-12-27T05:28:02.469Z,74.98
2022-12-27T05:29:02.423Z,74.63
2022-12-27T05:30:02.555Z,74.57
2022-12-27T05:31:02.566Z,74.77
2022-12-27T05:32:05.662Z,75.18
2022-12-27T05:33:02.323Z,74.88
2022-12-27T05:34:02.470Z,75.49
2022-12-27T05:35:02.399Z,76.35
2022-12-27T05:36:02.414Z,76.46
2022-12-27T05:37:02.329Z,76.46
2022-12-27T05:38:02.435Z,75.73
2022-12-27T05:39:02.345Z,75.63
2022-12-27T05:40:02.200Z,73.85
2022-12-27T05:41:02.375Z,73.71
2022-12-27T05:42:02.187Z,73.02
2022-12-27T05:43:02.342Z,73.30
2022-12-27T05:44:07.100Z,74.22
2022-12-27T05:45:02.381Z,73.61
2022-12-27T05:46:02.166Z,73.40
2022-12-27T05:47:02.385Z,74.63
2022-12-27T05:48:02.190Z,74.08
2022-12-27T05:49:02.331Z,75.22
2022-12-27T05:50:02.143Z,76.93
2022-12-27T05:51:02.264Z,77.24
2022-12-27T05:52:02.178Z,76.76
2022-12-27T05:53:02.246Z,78.20
2022-12-27T05:54:02.191Z,78.51
2022-12-27T05:55:02.042Z,78.82
2022-12-27T05:56:02.217Z,79.54
2022-12-27T05:57:02.017Z,79.03
2022-12-27T05:58:02.133Z,79.03
2022-12-27T05:59:01.981Z,79.44
2022-12-27T06:00:02.167Z,79.88
2022-12-27T06:01:02.032Z,80.30
2022-12-27T06:02:01.623Z,80.91
2022-12-27T06:03:02.394Z,80.75
2022-12-27T06:04:02.141Z,81.57
2022-12-27T06:05:02.061Z,81.88
2022-12-27T06:06:02.151Z,82.09
2022-12-27T06:07:01.985Z,81.57
2022-12-27T06:08:03.063Z,82.09
2022-12-27T06:09:02.092Z,82.33
2022-12-27T06:10:02.092Z,82.50
2022-12-27T06:11:02.796Z,82.40
2022-12-27T06:12:01.827Z,81.77
2022-12-27T06:13:03.081Z,80.85
2022-12-27T06:14:02.082Z,81.61
2022-12-27T06:15:02.081Z,81.51
2022-12-27T06:16:01.855Z,81.61
2022-12-27T06:17:01.971Z,82.02
2022-12-27T06:18:01.835Z,82.09
2022-12-27T06:19:01.596Z,80.54
2022-12-27T06:20:01.853Z,80.75
2022-12-27T06:21:01.961Z,79.41
2022-12-27T06:22:01.854Z,77.86
2022-12-27T06:23:01.923Z,78.38
2022-12-27T06:24:01.852Z,79.93
2022-12-27T06:25:02.000Z,78.00
2022-12-27T06:26:01.882Z,78.31
2022-12-27T06:27:01.686Z,78.31
2022-12-27T06:28:01.864Z,78.24
2022-12-27T06:29:01.665Z,76.90
2022-12-27T06:30:01.885Z,76.90
2022-12-27T06:31:01.731Z,75.67
2022-12-27T06:32:01.852Z,75.56
2022-12-27T06:33:01.681Z,74.84
2022-12-27T06:34:01.862Z,75.56
2022-12-27T06:35:01.825Z,73.91
2022-12-27T06:36:01.852Z,75.94
2022-12-27T06:37:02.736Z,72.85
2022-12-27T06:38:01.823Z,73.19
2022-12-27T06:39:01.662Z,74.33
2022-12-27T06:40:01.945Z,71.95
2022-12-27T06:41:01.777Z,73.71
2022-12-27T06:42:01.633Z,72.58
2022-12-27T06:43:01.713Z,73.30
2022-12-27T06:44:01.591Z,74.43
2022-12-27T06:45:01.743Z,71.26
2022-12-27T06:46:01.722Z,72.09
2022-12-27T06:47:01.762Z,71.89
2022-12-27T06:48:01.536Z,71.06
2022-12-27T06:49:01.680Z,69.93
2022-12-27T06:50:01.514Z,70.75
2022-12-27T06:51:01.702Z,69.51
2022-12-27T06:52:01.686Z,70.68
2022-12-27T06:53:01.664Z,73.19
2022-12-27T06:54:01.576Z,75.57
2022-12-27T06:55:01.667Z,74.88
2022-12-27T06:56:01.672Z,75.39
2022-12-27T06:57:01.838Z,75.95
2022-12-27T06:58:01.552Z,75.26
2022-12-27T06:59:01.507Z,76.46
2022-12-27T07:00:01.670Z,76.36
2022-12-27T07:01:01.412Z,75.74
2022-12-27T07:02:01.750Z,75.22
2022-12-27T07:03:01.491Z,75.32
2022-12-27T07:04:01.985Z,75.95
2022-12-27T07:05:01.343Z,76.43
2022-12-27T07:06:01.895Z,76.90
2022-12-27T07:07:01.381Z,73.71
2022-12-27T07:08:01.793Z,72.09
2022-12-27T07:09:01.473Z,71.78
2022-12-27T07:10:01.823Z,72.71
2022-12-27T07:11:01.373Z,71.57
2022-12-27T07:12:01.447Z,73.74
2022-12-27T07:13:01.360Z,71.98
2022-12-27T07:14:01.213Z,72.43
2022-12-27T07:15:01.752Z,71.88
2022-12-27T07:16:01.178Z,71.98
2022-12-27T07:17:01.343Z,72.12
2022-12-27T07:18:01.223Z,71.30
2022-12-27T07:19:01.336Z,71.61
2022-12-27T07:20:01.473Z,71.40
2022-12-27T07:21:01.764Z,71.12
2022-12-27T07:22:01.310Z,70.61
2022-12-27T07:23:01.431Z,71.12
2022-12-27T07:24:01.544Z,71.12
2022-12-27T07:25:01.293Z,70.09
2022-12-27T07:26:01.366Z,70.71
2022-12-27T07:27:01.300Z,69.57
2022-12-27T07:28:01.239Z,71.53
2022-12-27T07:29:01.294Z,70.61
2022-12-27T07:30:00.456Z,70.47
2022-12-27T07:31:01.135Z,71.19
2022-12-27T07:32:01.316Z,70.26
2022-12-27T07:33:01.131Z,69.85
2022-12-27T07:34:01.327Z,69.12
2022-12-27T07:35:01.070Z,68.23
2022-12-27T07:36:01.197Z,68.43
2022-12-27T07:37:01.109Z,68.02
2022-12-27T07:38:01.182Z,68.85
2022-12-27T07:39:01.163Z,67.71
2022-12-27T07:40:01.234Z,67.30
2022-12-27T07:41:01.113Z,67.68
2022-12-27T07:42:07.770Z,67.27
2022-12-27T07:43:01.721Z,67.47
2022-12-27T07:44:01.136Z,66.13
2022-12-27T07:45:01.074Z,66.64
2022-12-27T07:46:01.037Z,66.33
2022-12-27T07:47:01.073Z,66.57
2022-12-27T07:48:00.947Z,68.61
2022-12-27T07:49:01.041Z,65.54
2022-12-27T07:50:00.863Z,66.47
2022-12-27T07:51:01.043Z,66.85
2022-12-27T07:52:00.918Z,66.36
2022-12-27T07:53:01.126Z,66.57
2022-12-27T07:54:00.876Z,66.36
2022-12-27T07:55:01.032Z,68.61
2022-12-27T07:56:00.833Z,66.23
2022-12-27T07:57:00.998Z,67.54
2022-12-27T07:58:01.228Z,68.06
2022-12-27T07:59:01.073Z,67.72
2022-12-27T08:00:00.975Z,65.97
2022-12-27T08:01:00.851Z,65.03
2022-12-27T08:02:01.031Z,66.48
2022-12-27T08:03:00.893Z,67.24
2022-12-27T08:04:00.866Z,67.13
2022-12-27T08:05:00.760Z,67.75
2022-12-27T08:06:01.008Z,67.37
2022-12-27T08:07:00.862Z,67.58
2022-12-27T08:08:00.874Z,67.99
2022-12-27T08:09:00.789Z,67.58
2022-12-27T08:10:00.917Z,67.50
2022-12-27T08:11:05.286Z,67.71
2022-12-27T08:12:00.963Z,67.82
2022-12-27T08:13:00.745Z,68.64
2022-12-27T08:14:01.408Z,69.16
2022-12-27T08:15:00.742Z,68.40
2022-12-27T08:16:00.780Z,68.43
2022-12-27T08:17:00.898Z,69.47
2022-12-27T08:18:00.744Z,68.85
2022-12-27T08:19:04.856Z,69.57
2022-12-27T08:20:00.711Z,69.37
2022-12-27T08:21:00.712Z,67.78
2022-12-27T08:22:00.542Z,67.68
2022-12-27T08:23:00.715Z,68.40
2022-12-27T08:24:00.765Z,67.96
2022-12-27T08:25:00.904Z,66.41
2022-12-27T08:26:00.602Z,67.10
2022-12-27T08:27:00.720Z,64.87
2022-12-27T08:28:00.802Z,62.49
2022-12-27T08:29:01.229Z,60.35
2022-12-27T08:30:00.608Z,59.29
2022-12-27T08:31:00.665Z,58.03
2022-12-27T08:32:00.827Z,54.92
2022-12-27T08:33:00.394Z,53.36
2022-12-27T08:34:01.153Z,54.10
2022-12-27T08:35:18.392Z,51.08
2022-12-27T08:36:04.717Z,51.67
2022-12-27T08:37:00.384Z,51.75
2022-12-27T08:38:00.644Z,51.96
2022-12-27T08:39:00.526Z,49.24
2022-12-27T08:40:02.842Z,47.96
2022-12-27T08:41:00.396Z,48.74
2022-12-27T08:42:00.526Z,53.18
2022-12-27T08:42:59.703Z,55.15
2022-12-27T08:44:01.793Z,54.15
2022-12-27T08:45:01.513Z,54.51
2022-12-27T08:46:00.251Z,54.21
2022-12-27T08:47:00.653Z,49.33
2022-12-27T08:48:00.625Z,48.57
2022-12-27T08:49:00.779Z,47.40
2022-12-27T08:50:00.282Z,47.78
2022-12-27T08:51:00.522Z,47.83
2022-12-27T08:52:00.280Z,47.66
2022-12-27T08:53:00.374Z,45.32
2022-12-27T08:54:00.333Z,45.63
2022-12-27T08:55:00.520Z,46.56
2022-12-27T08:56:00.559Z,47.44
2022-12-27T08:57:00.586Z,45.63
2022-12-27T08:58:00.272Z,46.03
2022-12-27T08:59:00.366Z,46.11
2022-12-27T09:00:00.350Z,44.69
2022-12-27T09:01:00.423Z,45.50
2022-12-27T09:02:00.437Z,45.00
2022-12-27T09:03:00.256Z,44.34
2022-12-27T09:04:00.367Z,44.69
2022-12-27T09:05:00.211Z,44.14
2022-12-27T09:06:00.252Z,44.77
2022-12-27T09:07:00.208Z,45.40
2022-12-27T09:08:00.365Z,44.75
2022-12-27T09:09:00.306Z,44.95
2022-12-27T09:10:00.564Z,44.63
2022-12-27T09:10:59.473Z,43.79
2022-12-27T09:12:03.168Z,44.77
2022-12-27T09:13:00.723Z,43.63
2022-12-27T09:13:59.589Z,44.63
2022-12-27T09:15:01.077Z,43.18
2022-12-27T09:16:00.852Z,42.41
2022-12-27T09:17:00.192Z,43.43
2022-12-27T09:18:01.565Z,42.96
2022-12-27T09:19:00.168Z,42.66
2022-12-27T09:20:00.851Z,41.26
2022-12-27T09:21:00.681Z,41.14
2022-12-27T09:22:00.409Z,40.04
2022-12-27T09:23:00.141Z,40.06
2022-12-27T09:24:00.572Z,40.06
2022-12-27T09:25:00.430Z,41.62
2022-12-27T09:26:21.516Z,41.76
2022-12-27T09:27:21.384Z,42.66
2022-12-27T09:28:22.181Z,42.07
2022-12-27T09:29:06.094Z,41.64
2022-12-27T09:30:00.099Z,42.86
2022-12-27T09:31:00.035Z,42.07
2022-12-27T09:32:11.826Z,43.79
2022-12-27T09:33:00.743Z,42.76
2022-12-27T09:34:00.659Z,43.77
2022-12-27T09:34:59.801Z,43.08
2022-12-27T09:36:00.954Z,39.70
2022-12-27T09:36:59.773Z,38.62
2022-12-27T09:37:59.243Z,39.26
2022-12-27T09:39:00.020Z,41.27
2022-12-27T09:39:59.988Z,42.88
2022-12-27T09:41:00.749Z,41.82
2022-12-27T09:43:15.412Z,40.61
2022-12-27T09:44:00.779Z,40.77
2022-12-27T09:44:59.405Z,39.53
2022-12-27T09:46:01.230Z,40.91
2022-12-27T09:47:00.429Z,40.69
2022-12-27T09:48:00.240Z,40.72
2022-12-27T09:48:59.024Z,41.74
2022-12-27T09:49:59.054Z,41.33
2022-12-27T09:50:58.958Z,41.50
2022-12-27T09:51:59.292Z,40.42
2022-12-27T09:52:59.040Z,41.03
2022-12-27T09:53:58.972Z,40.26
2022-12-27T09:55:04.433Z,39.57
2022-12-27T09:56:00.877Z,41.35
2022-12-27T09:57:19.297Z,41.58
2022-12-27T09:57:59.930Z,42.77
2022-12-27T09:59:00.413Z,40.42
2022-12-27T09:59:59.687Z,40.91
2022-12-27T10:00:59.760Z,39.57
2022-12-27T10:01:59.884Z,40.70
2022-12-27T10:03:01.075Z,41.86
2022-12-27T10:04:00.261Z,43.84
2022-12-27T10:05:59.806Z,43.38
2022-12-27T10:07:00.365Z,42.02
2022-12-27T10:07:58.825Z,42.39
2022-12-27T10:09:00.112Z,41.96
2022-12-27T10:09:59.691Z,40.72
2022-12-27T10:10:59.773Z,39.72
2022-12-27T10:11:58.780Z,37.91
2022-12-27T10:12:59.895Z,39.13
2022-12-27T10:13:59.694Z,38.49
2022-12-27T10:15:00.516Z,39.91
2022-12-27T10:15:59.760Z,38.37
2022-12-27T10:17:00.430Z,39.17
2022-12-27T10:17:59.848Z,39.78
2022-12-27T10:18:58.712Z,40.70
2022-12-27T10:19:59.664Z,39.59
2022-12-27T10:20:58.756Z,39.49
2022-12-27T10:21:59.333Z,40.00
2022-12-27T10:23:04.277Z,38.57
2022-12-27T10:23:59.322Z,39.42
2022-12-27T10:24:58.714Z,38.68
2022-12-27T10:25:59.488Z,39.28
2022-12-27T10:26:59.134Z,38.68
2022-12-27T10:28:00.122Z,39.64
2022-12-27T10:28:59.442Z,37.59
2022-12-27T10:29:59.342Z,37.27
2022-12-27T10:30:59.437Z,37.38
2022-12-27T10:31:59.313Z,37.98
2022-12-27T10:32:59.514Z,35.66
2022-12-27T10:33:59.267Z,37.20
2022-12-27T10:34:58.574Z,38.05
2022-12-27T10:35:59.322Z,38.35
2022-12-27T10:36:59.166Z,37.87
2022-12-27T10:37:59.281Z,39.08
2022-12-27T10:38:59.183Z,39.39
2022-12-27T10:39:59.265Z,39.20
2022-12-27T10:40:59.082Z,38.79
2022-12-27T10:41:58.473Z,39.89
2022-12-27T10:42:59.213Z,39.92
2022-12-27T10:43:59.215Z,38.74
2022-12-27T10:44:59.102Z,38.99
2022-12-27T10:45:59.752Z,38.20
2022-12-27T10:46:59.164Z,38.05
2022-12-27T10:48:00.215Z,37.00
2022-12-27T10:49:58.985Z,38.45
2022-12-27T10:50:59.288Z,38.79
2022-12-27T10:51:59.434Z,36.43
2022-12-27T10:53:00.238Z,36.54
2022-12-27T10:53:59.661Z,37.27
2022-12-27T10:54:59.793Z,36.58
2022-12-27T10:55:59.002Z,38.12
2022-12-27T10:56:59.168Z,38.45
2022-12-27T10:57:59.019Z,37.13
2022-12-27T10:58:59.863Z,38.88
2022-12-27T10:59:59.144Z,39.73
2022-12-27T11:00:58.428Z,39.99
2022-12-27T11:01:58.975Z,43.04
2022-12-27T11:02:59.167Z,45.55
2022-12-27T11:03:58.998Z,48.97
2022-12-27T11:04:59.125Z,50.14
2022-12-27T11:05:59.044Z,51.90
2022-12-27T11:07:00.226Z,52.56
2022-12-27T11:07:59.573Z,54.74
2022-12-27T11:08:59.942Z,54.85
2022-12-27T11:09:59.323Z,54.15
2022-12-27T11:10:58.793Z,55.59
2022-12-27T11:12:00.444Z,55.79
2022-12-27T11:12:58.853Z,55.08
2022-12-27T11:13:59.333Z,55.00
2022-12-27T11:14:58.793Z,57.05
2022-12-27T11:15:59.282Z,55.10
2022-12-27T11:16:59.462Z,55.41
2022-12-27T11:17:58.922Z,55.13
2022-12-27T11:18:59.189Z,54.41
2022-12-27T11:20:00.059Z,57.98
2022-12-27T11:20:58.933Z,57.98
2022-12-27T11:21:58.842Z,58.28
2022-12-27T11:22:58.930Z,58.77
2022-12-27T11:23:58.638Z,56.41
2022-12-27T11:24:58.889Z,57.03
2022-12-27T11:25:58.661Z,54.36
2022-12-27T11:26:58.785Z,54.66
2022-12-27T11:27:58.657Z,56.51
2022-12-27T11:28:58.778Z,57.33
2022-12-27T11:29:58.666Z,56.62
2022-12-27T11:30:59.062Z,55.18
2022-12-27T11:31:58.739Z,54.79
2022-12-27T11:32:58.863Z,54.28
2022-12-27T11:33:58.624Z,55.54
2022-12-27T11:34:58.762Z,56.05
2022-12-27T11:35:58.728Z,58.31
2022-12-27T11:36:58.714Z,57.77
2022-12-27T11:37:58.632Z,56.56
2022-12-27T11:38:58.508Z,56.98
2022-12-27T11:39:58.845Z,57.08
2022-12-27T11:40:58.506Z,57.08
2022-12-27T11:41:58.794Z,56.15
2022-12-27T11:42:58.473Z,56.77
2022-12-27T11:43:58.643Z,57.70
2022-12-27T11:44:58.553Z,56.56
2022-12-27T11:45:58.613Z,57.39
2022-12-27T11:46:59.514Z,56.98
2022-12-27T11:47:58.642Z,58.23
2022-12-27T11:48:57.784Z,57.31
2022-12-27T11:49:58.626Z,55.77
2022-12-27T11:50:58.472Z,55.87
2022-12-27T11:51:58.543Z,55.28
2022-12-27T11:52:58.502Z,56.31
2022-12-27T11:53:57.801Z,57.95
2022-12-27T11:54:57.738Z,58.13
2022-12-27T11:55:58.494Z,56.08
2022-12-27T11:56:58.514Z,56.51
2022-12-27T11:57:59.094Z,58.47
2022-12-27T11:58:59.086Z,60.49
2022-12-27T11:59:58.725Z,58.95
2022-12-27T12:01:03.585Z,57.41
2022-12-27T12:01:58.852Z,58.57
2022-12-27T12:02:58.028Z,59.67
2022-12-27T12:03:59.573Z,58.03
2022-12-27T12:04:58.682Z,56.28
2022-12-27T12:05:58.283Z,57.64
2022-12-27T12:06:58.413Z,58.06
2022-12-27T12:07:58.281Z,57.62
2022-12-27T12:08:58.354Z,58.23
2022-12-27T12:09:57.614Z,56.49
2022-12-27T12:10:58.346Z,57.62
2022-12-27T12:11:57.593Z,57.41
2022-12-27T12:12:58.175Z,57.21
2022-12-27T12:13:58.025Z,56.31
2022-12-27T12:14:58.433Z,56.02
2022-12-27T12:15:57.504Z,57.67
2022-12-27T12:16:57.686Z,60.01
2022-12-27T12:17:58.939Z,60.31
2022-12-27T12:18:59.263Z,57.75
2022-12-27T12:19:58.236Z,57.95
2022-12-27T12:20:58.177Z,58.98
2022-12-27T12:21:58.249Z,57.34
2022-12-27T12:22:58.248Z,58.57
2022-12-27T12:23:58.254Z,57.82
2022-12-27T12:24:58.253Z,57.72
2022-12-27T12:25:58.183Z,58.57
2022-12-27T12:26:58.954Z,56.93
2022-12-27T12:27:59.009Z,57.26
2022-12-27T12:29:00.293Z,58.70
2022-12-27T12:29:59.395Z,59.80
2022-12-27T12:30:58.761Z,58.67
2022-12-27T12:31:59.942Z,58.91
2022-12-27T12:32:58.664Z,58.57
2022-12-27T12:33:57.944Z,58.06
2022-12-27T12:34:58.132Z,57.85
2022-12-27T12:35:58.272Z,58.26
2022-12-27T12:36:58.147Z,59.70
2022-12-27T12:37:58.105Z,58.98
2022-12-27T12:38:58.406Z,58.87
2022-12-27T12:39:57.972Z,59.08
2022-12-27T12:40:58.493Z,57.23
2022-12-27T12:41:57.973Z,57.46
2022-12-27T12:42:58.576Z,58.50
2022-12-27T12:43:58.169Z,57.67
2022-12-27T12:44:58.461Z,56.23
2022-12-27T12:45:58.065Z,58.50
2022-12-27T12:46:58.263Z,59.83
2022-12-27T12:47:58.001Z,59.93
2022-12-27T12:48:58.362Z,59.01
2022-12-27T12:49:58.042Z,58.26
2022-12-27T12:50:58.518Z,58.08
2022-12-27T12:51:57.996Z,58.57
2022-12-27T12:52:58.520Z,57.13
2022-12-27T12:53:57.946Z,55.21
2022-12-27T12:54:58.281Z,57.23